Digby Island Ferry — CY9860 — position and weather

sailwx.info

Track history (hours):
 
Tides and Currents Weather Stations Pressure Air Temp Water Temp Dewpoint Dewpoint Depression Visibility Wind Speed Wind Dir Waves Ship Positions

Digby Island Ferry

Last reported at 2018-Jun-21 02:30 UTC. Time now 2018-Jun-21 02:44 UTC.
Position N 54°19' W 130°24'.

Length 35 m.

Type: Passenger vessel. MMSI: 316009712.

Date/timePositionNaut miles runAvg speedWind from/ knotsBaromVisibWave heightAir tempDewpointWater temp
2018-Jun-21 02:30N 54°19' W 130°24'0 0.0
2018-Jun-21 02:00N 54°19' W 130°24'2 0.8
2018-Jun-20 23:52N 54°18' W 130°22'1 2.5
2018-Jun-20 23:29N 54°19' W 130°23'1 0.5
2018-Jun-20 22:18N 54°18' W 130°22'1 4.2
2018-Jun-20 21:58N 54°19' W 130°24'0 0.0
2018-Jun-20 21:28N 54°19' W 130°24'0 0.0
2018-Jun-20 20:58N 54°19' W 130°24'2 1.0
2018-Jun-20 19:07N 54°18' W 130°21'1 9.4
2018-Jun-20 19:00N 54°18' W 130°23'1 1.9
2018-Jun-20 18:21N 54°18' W 130°21'2 4.9
2018-Jun-20 17:55N 54°19' W 130°24'0 0.0
2018-Jun-20 17:25N 54°19' W 130°24'0 0.0
2018-Jun-20 16:55N 54°19' W 130°24'2 2.9
2018-Jun-20 16:19N 54°18' W 130°22'1 3.8
2018-Jun-20 16:00N 54°19' W 130°23'2 0.2
2018-Jun-20 07:11N 54°18' W 130°21'0 0.0
2018-Jun-20 06:41N 54°18' W 130°21'0 0.0
2018-Jun-20 05:17N 54°18' W 130°21'2 6.0
2018-Jun-20 04:56N 54°19' W 130°24'1 3.1
2018-Jun-20 04:29N 54°18' W 130°22'1 2.5
2018-Jun-20 03:53N 54°19' W 130°24'0 0.0
2018-Jun-20 03:29N 54°19' W 130°24'0 0.0
2018-Jun-20 02:59N 54°19' W 130°24'0 0.0
2018-Jun-20 02:29N 54°19' W 130°24'0 0.0
2018-Jun-20 01:59N 54°19' W 130°24'1 1.3
2018-Jun-20 01:30N 54°19' W 130°23'1 2.7
2018-Jun-20 00:58N 54°18' W 130°21'0 0.0
2018-Jun-20 00:03N 54°18' W 130°21'0 1.8
2018-Jun-19 23:58N 54°18' W 130°21'1 0.6
2018-Jun-19 22:43N 54°18' W 130°22'1 4.1
2018-Jun-19 22:25N 54°19' W 130°24'0 0.0
2018-Jun-19 21:49N 54°19' W 130°24'0 0.0
2018-Jun-19 21:28N 54°19' W 130°24'0 0.0
2018-Jun-19 20:58N 54°19' W 130°24'2 1.2
2018-Jun-19 19:17N 54°18' W 130°21'2 7.1
2018-Jun-19 19:00N 54°19' W 130°24'1 1.9
2018-Jun-19 18:30N 54°18' W 130°23'1 1.8
2018-Jun-19 17:59N 54°19' W 130°24'0 0.0
2018-Jun-19 17:29N 54°19' W 130°24'0 0.0
2018-Jun-19 16:59N 54°19' W 130°24'1 1.7
2018-Jun-19 16:17N 54°18' W 130°22'1 1.9
2018-Jun-19 16:00N 54°19' W 130°23'1 0.1
2018-Jun-19 04:09N 54°18' W 130°22'1 8.3
2018-Jun-19 04:00N 54°19' W 130°24'1 1.5
2018-Jun-19 03:29N 54°18' W 130°23'1 1.7
2018-Jun-19 02:59N 54°19' W 130°24'0 0.0
2018-Jun-19 02:29N 54°19' W 130°24'0 0.0
2018-Jun-19 01:59N 54°19' W 130°24'1 1.3
2018-Jun-19 01:30N 54°19' W 130°23'1 2.6
2018-Jun-19 00:56N 54°18' W 130°21'0 0.0
2018-Jun-19 00:26N 54°18' W 130°21'0 0.0
2018-Jun-19 00:00N 54°18' W 130°21'2 3.2
2018-Jun-18 23:30N 54°19' W 130°23'1 0.9
2018-Jun-18 22:32N 54°18' W 130°22'0 9.4
2018-Jun-18 22:29N 54°18' W 130°23'1 1.4
2018-Jun-18 21:49N 54°19' W 130°24'0 0.0
2018-Jun-18 21:27N 54°19' W 130°24'2 1.1
2018-Jun-18 19:42N 54°18' W 130°21'2 8.7
2018-Jun-18 19:29N 54°19' W 130°24'2 4.2
2018-Jun-18 19:00N 54°18' W 130°21'2 3.5
2018-Jun-18 18:25N 54°19' W 130°24'0 0.0
2018-Jun-18 17:55N 54°19' W 130°24'0 0.0
2018-Jun-18 17:25N 54°19' W 130°24'0 0.0
2018-Jun-18 16:55N 54°19' W 130°24'1 2.0
2018-Jun-18 16:20N 54°18' W 130°22'0 1.3
2018-Jun-18 16:00N 54°19' W 130°23'1 0.2
2018-Jun-18 10:29N 54°18' W 130°21'1 0.1
2018-Jun-18 04:31N 54°18' W 130°22'010.2
2018-Jun-18 04:30N 54°18' W 130°23'1 0.9
2018-Jun-18 03:56N 54°18' W 130°22'2 3.2
2018-Jun-18 03:26N 54°19' W 130°24'0 0.0
2018-Jun-18 02:56N 54°19' W 130°24'0 0.0
2018-Jun-18 02:26N 54°19' W 130°24'0 0.0
2018-Jun-18 01:59N 54°19' W 130°24'1 1.3
2018-Jun-18 01:30N 54°19' W 130°23'1 0.6
2018-Jun-17 23:48N 54°18' W 130°22'1 2.9
2018-Jun-17 23:30N 54°19' W 130°23'1 0.5
2018-Jun-17 20:44N 54°18' W 130°21'0 0.0
2018-Jun-17 20:20N 54°18' W 130°21'0 0.0
2018-Jun-17 19:59N 54°18' W 130°21'1 2.5
2018-Jun-17 19:30N 54°19' W 130°23'1 1.7
2018-Jun-17 19:00N 54°19' W 130°24'0 0.2
2018-Jun-17 18:28N 54°19' W 130°24'0 0.0
2018-Jun-17 17:58N 54°19' W 130°24'0 0.0
2018-Jun-17 17:28N 54°19' W 130°24'0 0.0
2018-Jun-17 16:58N 54°19' W 130°24'1 2.1
2018-Jun-17 16:19N 54°18' W 130°22'0 1.3
2018-Jun-17 15:59N 54°18' W 130°23'1 0.5
2018-Jun-17 13:46N 54°18' W 130°21'0 0.0
2018-Jun-17 03:52N 54°18' W 130°21'2 5.7
2018-Jun-17 03:30N 54°19' W 130°24'0 0.0
2018-Jun-17 03:00N 54°19' W 130°24'0 0.0
2018-Jun-17 02:30N 54°19' W 130°24'0 0.0
2018-Jun-17 02:00N 54°19' W 130°24'1 1.4
2018-Jun-17 01:30N 54°19' W 130°23'1 0.3
2018-Jun-16 23:47N 54°18' W 130°22'1 1.8
2018-Jun-16 23:29N 54°19' W 130°23'1 1.0
2018-Jun-16 22:06N 54°18' W 130°21'0 0.0
2018-Jun-16 22:00N 54°18' W 130°21'1 0.2
2018-Jun-16 19:08N 54°18' W 130°22'1 9.0
2018-Jun-16 19:00N 54°19' W 130°24'1 2.1
2018-Jun-16 18:28N 54°18' W 130°22'2 3.1
2018-Jun-16 17:58N 54°19' W 130°24'0 0.0
2018-Jun-16 17:28N 54°19' W 130°24'0 0.0
2018-Jun-16 16:58N 54°19' W 130°24'1 0.1
2018-Jun-16 04:18N 54°18' W 130°22'1 4.2
2018-Jun-16 03:59N 54°19' W 130°24'0 0.0
2018-Jun-16 03:26N 54°19' W 130°24'0 0.0
2018-Jun-16 02:56N 54°19' W 130°24'0 0.0
2018-Jun-16 02:26N 54°19' W 130°24'0 0.0
2018-Jun-16 01:59N 54°19' W 130°24'1 2.4
2018-Jun-16 01:30N 54°18' W 130°22'1 0.5
2018-Jun-15 23:52N 54°18' W 130°21'2 4.3
2018-Jun-15 23:30N 54°19' W 130°23'2 3.0
2018-Jun-15 22:57N 54°18' W 130°21'2 4.6
2018-Jun-15 22:30N 54°19' W 130°24'0 0.0
2018-Jun-15 22:00N 54°19' W 130°24'0 0.0
2018-Jun-15 21:30N 54°19' W 130°24'0 0.0
2018-Jun-15 21:00N 54°19' W 130°24'2 1.0
2018-Jun-15 19:12N 54°18' W 130°22'2 8.1
2018-Jun-15 18:59N 54°19' W 130°24'2 2.6
2018-Jun-15 18:23N 54°18' W 130°22'2 2.7
2018-Jun-15 17:48N 54°19' W 130°24'1 0.9
2018-Jun-15 16:21N 54°18' W 130°22'0 1.0
2018-Jun-15 15:59N 54°18' W 130°23'1 0.1
2018-Jun-15 04:28N 54°18' W 130°22'0 0.3
2018-Jun-15 03:57N 54°18' W 130°21'2 4.0
2018-Jun-15 03:28N 54°19' W 130°24'0 0.0
2018-Jun-15 02:58N 54°19' W 130°24'0 0.0
2018-Jun-15 02:28N 54°19' W 130°24'0 0.0
2018-Jun-15 01:58N 54°19' W 130°24'1 1.3
2018-Jun-15 01:30N 54°19' W 130°23'1 0.4
2018-Jun-14 23:52N 54°18' W 130°22'1 3.2
2018-Jun-14 23:28N 54°19' W 130°24'0 0.0
2018-Jun-14 22:55N 54°19' W 130°24'0 0.0
2018-Jun-14 22:25N 54°19' W 130°24'0 0.0
2018-Jun-14 21:55N 54°19' W 130°24'0 0.0
2018-Jun-14 21:27N 54°19' W 130°24'1 0.8
2018-Jun-14 19:44N 54°18' W 130°22'1 5.6
2018-Jun-14 19:30N 54°19' W 130°24'0 0.0
2018-Jun-14 18:59N 54°19' W 130°24'2 3.5
2018-Jun-14 18:28N 54°18' W 130°21'2 4.0
2018-Jun-14 18:00N 54°19' W 130°24'1 1.5
2018-Jun-14 17:02N 54°18' W 130°22'0 9.1
2018-Jun-14 16:59N 54°18' W 130°23'1 1.6
2018-Jun-14 16:23N 54°18' W 130°21'1 3.6
2018-Jun-14 16:00N 54°19' W 130°23'1 0.9
2018-Jun-14 14:24N 54°18' W 130°21'0 0.0
2018-Jun-14 14:00N 54°18' W 130°21'0 0.0
2018-Jun-14 13:18N 54°18' W 130°21'0 0.0
2018-Jun-14 12:36N 54°18' W 130°21'0 0.0
2018-Jun-14 12:21N 54°18' W 130°21'0 0.0
2018-Jun-14 12:00N 54°18' W 130°21'0 0.0
2018-Jun-14 11:30N 54°18' W 130°21'0 0.0
2018-Jun-14 11:00N 54°18' W 130°21'0 0.0
2018-Jun-14 10:30N 54°18' W 130°21'0 0.0
2018-Jun-14 10:00N 54°18' W 130°21'0 0.0
2018-Jun-14 09:27N 54°18' W 130°21'0 0.0
2018-Jun-14 09:00N 54°18' W 130°21'0 0.0
2018-Jun-14 08:30N 54°18' W 130°21'0 0.0
2018-Jun-14 08:00N 54°18' W 130°21'0 0.0
2018-Jun-14 07:27N 54°18' W 130°21'0 0.0
2018-Jun-14 07:00N 54°18' W 130°21'0 0.0
2018-Jun-14 06:30N 54°18' W 130°21'0 0.0
2018-Jun-14 06:00N 54°18' W 130°21'0 0.0
2018-Jun-14 05:30N 54°18' W 130°21'2 3.3
2018-Jun-14 04:59N 54°19' W 130°24'1 1.5
2018-Jun-14 04:26N 54°18' W 130°22'1 2.8
2018-Jun-14 04:00N 54°19' W 130°24'0 0.0
2018-Jun-14 03:30N 54°19' W 130°24'0 0.0
2018-Jun-14 03:00N 54°19' W 130°24'0 0.0
2018-Jun-14 02:30N 54°19' W 130°24'0 0.0
2018-Jun-14 02:00N 54°19' W 130°24'1 1.2
2018-Jun-14 01:30N 54°19' W 130°23'1 0.6
2018-Jun-13 23:50N 54°18' W 130°22'1 2.2
2018-Jun-13 23:29N 54°19' W 130°23'1 2.3
2018-Jun-13 22:55N 54°18' W 130°21'2 4.9
2018-Jun-13 22:30N 54°19' W 130°24'0 0.0
2018-Jun-13 22:00N 54°19' W 130°24'0 0.0
2018-Jun-13 21:30N 54°19' W 130°24'0 0.0
2018-Jun-13 21:00N 54°19' W 130°24'2 3.8
2018-Jun-13 20:27N 54°18' W 130°21'0 0.0
2018-Jun-13 19:57N 54°18' W 130°21'2 4.5
2018-Jun-13 19:30N 54°19' W 130°24'1 2.0
2018-Jun-13 18:58N 54°18' W 130°23'1 2.2
2018-Jun-13 18:29N 54°19' W 130°24'0 0.0
2018-Jun-13 17:59N 54°19' W 130°24'0 0.0
2018-Jun-13 17:26N 54°19' W 130°24'0 0.0
2018-Jun-13 16:59N 54°19' W 130°24'2 2.3
2018-Jun-13 16:20N 54°18' W 130°22'1 3.1
2018-Jun-13 16:00N 54°19' W 130°23'1 0.1
2018-Jun-13 04:18N 54°18' W 130°22'1 3.0
2018-Jun-13 04:00N 54°19' W 130°24'0 0.7
2018-Jun-13 03:30N 54°19' W 130°24'0 0.1
2018-Jun-13 02:56N 54°19' W 130°24'0 0.0
2018-Jun-13 02:26N 54°19' W 130°24'0 0.0
2018-Jun-13 01:56N 54°19' W 130°24'1 1.5
2018-Jun-13 01:30N 54°19' W 130°23'1 0.9
2018-Jun-12 23:55N 54°18' W 130°21'1 3.2
2018-Jun-12 23:30N 54°19' W 130°23'1 1.2
2018-Jun-12 22:41N 54°18' W 130°22'2 9.1
2018-Jun-12 22:30N 54°19' W 130°24'0 0.1
2018-Jun-12 22:00N 54°19' W 130°24'0 0.0
2018-Jun-12 21:30N 54°19' W 130°24'0 0.0
2018-Jun-12 21:00N 54°19' W 130°24'2 1.1
2018-Jun-12 19:13N 54°18' W 130°21'1 6.7
2018-Jun-12 19:00N 54°19' W 130°23'1 1.0
2018-Jun-12 18:08N 54°18' W 130°22'1 8.9
2018-Jun-12 18:00N 54°19' W 130°24'0 0.7
2018-Jun-12 17:30N 54°19' W 130°24'0 0.0
2018-Jun-12 17:00N 54°19' W 130°24'2 2.6
2018-Jun-12 16:23N 54°18' W 130°22'1 2.9
2018-Jun-12 16:01N 54°19' W 130°23'1 2.7
2018-Jun-12 15:27N 54°18' W 130°21'0 0.0
2018-Jun-12 13:27N 54°18' W 130°21'0 0.0
2018-Jun-12 12:57N 54°18' W 130°21'1 0.1
2018-Jun-12 04:21N 54°18' W 130°22'0 0.9
2018-Jun-12 04:00N 54°18' W 130°23'1 1.9
2018-Jun-12 03:27N 54°19' W 130°24'0 0.0
2018-Jun-12 03:00N 54°19' W 130°24'0 0.0
2018-Jun-12 02:30N 54°19' W 130°24'0 0.0
2018-Jun-12 02:00N 54°19' W 130°24'1 1.1
2018-Jun-12 01:30N 54°19' W 130°23'2 1.1
2018-Jun-12 00:02N 54°18' W 130°21'1 3.1
2018-Jun-11 23:47N 54°18' W 130°22'1 3.1
2018-Jun-11 23:30N 54°19' W 130°23'2 2.4
2018-Jun-11 22:49N 54°18' W 130°21'2 6.1
2018-Jun-11 22:29N 54°19' W 130°24'0 0.0
2018-Jun-11 21:59N 54°19' W 130°24'0 0.0
2018-Jun-11 21:29N 54°19' W 130°24'0 0.0
2018-Jun-11 20:59N 54°19' W 130°24'2 1.5
2018-Jun-11 19:37N 54°18' W 130°21'1 7.2
2018-Jun-11 19:29N 54°18' W 130°22'1 1.7
2018-Jun-11 18:57N 54°18' W 130°21'2 3.8
2018-Jun-11 18:26N 54°19' W 130°24'0 0.0
2018-Jun-11 17:59N 54°19' W 130°24'0 0.0
2018-Jun-11 17:30N 54°19' W 130°24'0 0.0
2018-Jun-11 17:00N 54°19' W 130°24'2 3.5
2018-Jun-11 16:24N 54°18' W 130°21'1 3.6
2018-Jun-11 16:00N 54°19' W 130°23'1 2.6
2018-Jun-11 15:26N 54°18' W 130°21'0 0.0
2018-Jun-11 14:56N 54°18' W 130°21'0 0.0
2018-Jun-11 14:26N 54°18' W 130°21'0 0.0
2018-Jun-11 13:50N 54°18' W 130°21'0 0.0
2018-Jun-11 13:14N 54°18' W 130°21'0 0.0
2018-Jun-11 12:50N 54°18' W 130°21'0 0.0
2018-Jun-11 12:14N 54°18' W 130°21'0 0.0
2018-Jun-11 11:56N 54°18' W 130°21'0 0.0
2018-Jun-11 08:50N 54°18' W 130°21'0 0.0
2018-Jun-11 08:26N 54°18' W 130°21'0 0.0
2018-Jun-11 05:50N 54°18' W 130°21'0 0.0
2018-Jun-11 05:29N 54°18' W 130°21'1 2.6
2018-Jun-11 04:59N 54°19' W 130°23'1 2.7
2018-Jun-11 04:29N 54°18' W 130°21'2 4.0
2018-Jun-11 03:59N 54°19' W 130°24'0 0.0
2018-Jun-11 03:29N 54°19' W 130°24'0 0.0
2018-Jun-11 02:59N 54°19' W 130°24'  
Track history (hours):
 
Tides and Currents Weather Stations Pressure Air Temp Water Temp Dewpoint Dewpoint Depression Visibility Wind Speed Wind Dir Waves Ship Positions

Digby Island Ferry

Last reported at 2018-Jun-21 02:30 UTC. Time now 2018-Jun-21 02:44 UTC.
Position N 54°19' W 130°24'.

Length 35 m.

Type: Passenger vessel. MMSI: 316009712.

Date/timePositionNaut miles runAvg speedWind from/ knotsBaromVisibWave heightAir tempDewpointWater temp
2018-Jun-21 02:30N 54°19' W 130°24'0 0.0
2018-Jun-21 02:00N 54°19' W 130°24'2 0.8
2018-Jun-20 23:52N 54°18' W 130°22'1 2.5
2018-Jun-20 23:29N 54°19' W 130°23'1 0.5
2018-Jun-20 22:18N 54°18' W 130°22'1 4.2
2018-Jun-20 21:58N 54°19' W 130°24'0 0.0
2018-Jun-20 21:28N 54°19' W 130°24'0 0.0
2018-Jun-20 20:58N 54°19' W 130°24'2 1.0
2018-Jun-20 19:07N 54°18' W 130°21'1 9.4
2018-Jun-20 19:00N 54°18' W 130°23'1 1.9
2018-Jun-20 18:21N 54°18' W 130°21'2 4.9
2018-Jun-20 17:55N 54°19' W 130°24'0 0.0
2018-Jun-20 17:25N 54°19' W 130°24'0 0.0
2018-Jun-20 16:55N 54°19' W 130°24'2 2.9
2018-Jun-20 16:19N 54°18' W 130°22'1 3.8
2018-Jun-20 16:00N 54°19' W 130°23'2 0.2
2018-Jun-20 07:11N 54°18' W 130°21'0 0.0
2018-Jun-20 06:41N 54°18' W 130°21'0 0.0
2018-Jun-20 05:17N 54°18' W 130°21'2 6.0
2018-Jun-20 04:56N 54°19' W 130°24'1 3.1
2018-Jun-20 04:29N 54°18' W 130°22'1 2.5
2018-Jun-20 03:53N 54°19' W 130°24'0 0.0
2018-Jun-20 03:29N 54°19' W 130°24'0 0.0
2018-Jun-20 02:59N 54°19' W 130°24'0 0.0
2018-Jun-20 02:29N 54°19' W 130°24'0 0.0
2018-Jun-20 01:59N 54°19' W 130°24'1 1.3
2018-Jun-20 01:30N 54°19' W 130°23'1 2.7
2018-Jun-20 00:58N 54°18' W 130°21'0 0.0
2018-Jun-20 00:03N 54°18' W 130°21'0 1.8
2018-Jun-19 23:58N 54°18' W 130°21'1 0.6
2018-Jun-19 22:43N 54°18' W 130°22'1 4.1
2018-Jun-19 22:25N 54°19' W 130°24'0 0.0
2018-Jun-19 21:49N 54°19' W 130°24'0 0.0
2018-Jun-19 21:28N 54°19' W 130°24'0 0.0
2018-Jun-19 20:58N 54°19' W 130°24'2 1.2
2018-Jun-19 19:17N 54°18' W 130°21'2 7.1
2018-Jun-19 19:00N 54°19' W 130°24'1 1.9
2018-Jun-19 18:30N 54°18' W 130°23'1 1.8
2018-Jun-19 17:59N 54°19' W 130°24'0 0.0
2018-Jun-19 17:29N 54°19' W 130°24'0 0.0
2018-Jun-19 16:59N 54°19' W 130°24'1 1.7
2018-Jun-19 16:17N 54°18' W 130°22'1 1.9
2018-Jun-19 16:00N 54°19' W 130°23'1 0.1
2018-Jun-19 04:09N 54°18' W 130°22'1 8.3
2018-Jun-19 04:00N 54°19' W 130°24'1 1.5
2018-Jun-19 03:29N 54°18' W 130°23'1 1.7
2018-Jun-19 02:59N 54°19' W 130°24'0 0.0
2018-Jun-19 02:29N 54°19' W 130°24'0 0.0
2018-Jun-19 01:59N 54°19' W 130°24'1 1.3
2018-Jun-19 01:30N 54°19' W 130°23'1 2.6
2018-Jun-19 00:56N 54°18' W 130°21'0 0.0
2018-Jun-19 00:26N 54°18' W 130°21'0 0.0
2018-Jun-19 00:00N 54°18' W 130°21'2 3.2
2018-Jun-18 23:30N 54°19' W 130°23'1 0.9
2018-Jun-18 22:32N 54°18' W 130°22'0 9.4
2018-Jun-18 22:29N 54°18' W 130°23'1 1.4
2018-Jun-18 21:49N 54°19' W 130°24'0 0.0
2018-Jun-18 21:27N 54°19' W 130°24'2 1.1
2018-Jun-18 19:42N 54°18' W 130°21'2 8.7
2018-Jun-18 19:29N 54°19' W 130°24'2 4.2
2018-Jun-18 19:00N 54°18' W 130°21'2 3.5
2018-Jun-18 18:25N 54°19' W 130°24'0 0.0
2018-Jun-18 17:55N 54°19' W 130°24'0 0.0
2018-Jun-18 17:25N 54°19' W 130°24'0 0.0
2018-Jun-18 16:55N 54°19' W 130°24'1 2.0
2018-Jun-18 16:20N 54°18' W 130°22'0 1.3
2018-Jun-18 16:00N 54°19' W 130°23'1 0.2
2018-Jun-18 10:29N 54°18' W 130°21'1 0.1
2018-Jun-18 04:31N 54°18' W 130°22'010.2
2018-Jun-18 04:30N 54°18' W 130°23'1 0.9
2018-Jun-18 03:56N 54°18' W 130°22'2 3.2
2018-Jun-18 03:26N 54°19' W 130°24'0 0.0
2018-Jun-18 02:56N 54°19' W 130°24'0 0.0
2018-Jun-18 02:26N 54°19' W 130°24'0 0.0
2018-Jun-18 01:59N 54°19' W 130°24'1 1.3
2018-Jun-18 01:30N 54°19' W 130°23'1 0.6
2018-Jun-17 23:48N 54°18' W 130°22'1 2.9
2018-Jun-17 23:30N 54°19' W 130°23'1 0.5
2018-Jun-17 20:44N 54°18' W 130°21'0 0.0
2018-Jun-17 20:20N 54°18' W 130°21'0 0.0
2018-Jun-17 19:59N 54°18' W 130°21'1 2.5
2018-Jun-17 19:30N 54°19' W 130°23'1 1.7
2018-Jun-17 19:00N 54°19' W 130°24'0 0.2
2018-Jun-17 18:28N 54°19' W 130°24'0 0.0
2018-Jun-17 17:58N 54°19' W 130°24'0 0.0
2018-Jun-17 17:28N 54°19' W 130°24'0 0.0
2018-Jun-17 16:58N 54°19' W 130°24'1 2.1
2018-Jun-17 16:19N 54°18' W 130°22'0 1.3
2018-Jun-17 15:59N 54°18' W 130°23'1 0.5
2018-Jun-17 13:46N 54°18' W 130°21'0 0.0
2018-Jun-17 03:52N 54°18' W 130°21'2 5.7
2018-Jun-17 03:30N 54°19' W 130°24'0 0.0
2018-Jun-17 03:00N 54°19' W 130°24'0 0.0
2018-Jun-17 02:30N 54°19' W 130°24'0 0.0
2018-Jun-17 02:00N 54°19' W 130°24'1 1.4
2018-Jun-17 01:30N 54°19' W 130°23'1 0.3
2018-Jun-16 23:47N 54°18' W 130°22'1 1.8
2018-Jun-16 23:29N 54°19' W 130°23'1 1.0
2018-Jun-16 22:06N 54°18' W 130°21'0 0.0
2018-Jun-16 22:00N 54°18' W 130°21'1 0.2
2018-Jun-16 19:08N 54°18' W 130°22'1 9.0
2018-Jun-16 19:00N 54°19' W 130°24'1 2.1
2018-Jun-16 18:28N 54°18' W 130°22'2 3.1
2018-Jun-16 17:58N 54°19' W 130°24'0 0.0
2018-Jun-16 17:28N 54°19' W 130°24'0 0.0
2018-Jun-16 16:58N 54°19' W 130°24'1 0.1
2018-Jun-16 04:18N 54°18' W 130°22'1 4.2
2018-Jun-16 03:59N 54°19' W 130°24'0 0.0
2018-Jun-16 03:26N 54°19' W 130°24'0 0.0
2018-Jun-16 02:56N 54°19' W 130°24'0 0.0
2018-Jun-16 02:26N 54°19' W 130°24'0 0.0
2018-Jun-16 01:59N 54°19' W 130°24'1 2.4
2018-Jun-16 01:30N 54°18' W 130°22'1 0.5
2018-Jun-15 23:52N 54°18' W 130°21'2 4.3
2018-Jun-15 23:30N 54°19' W 130°23'2 3.0
2018-Jun-15 22:57N 54°18' W 130°21'2 4.6
2018-Jun-15 22:30N 54°19' W 130°24'0 0.0
2018-Jun-15 22:00N 54°19' W 130°24'0 0.0
2018-Jun-15 21:30N 54°19' W 130°24'0 0.0
2018-Jun-15 21:00N 54°19' W 130°24'2 1.0
2018-Jun-15 19:12N 54°18' W 130°22'2 8.1
2018-Jun-15 18:59N 54°19' W 130°24'2 2.6
2018-Jun-15 18:23N 54°18' W 130°22'2 2.7
2018-Jun-15 17:48N 54°19' W 130°24'1 0.9
2018-Jun-15 16:21N 54°18' W 130°22'0 1.0
2018-Jun-15 15:59N 54°18' W 130°23'1 0.1
2018-Jun-15 04:28N 54°18' W 130°22'0 0.3
2018-Jun-15 03:57N 54°18' W 130°21'2 4.0
2018-Jun-15 03:28N 54°19' W 130°24'0 0.0
2018-Jun-15 02:58N 54°19' W 130°24'0 0.0
2018-Jun-15 02:28N 54°19' W 130°24'0 0.0
2018-Jun-15 01:58N 54°19' W 130°24'1 1.3
2018-Jun-15 01:30N 54°19' W 130°23'1 0.4
2018-Jun-14 23:52N 54°18' W 130°22'1 3.2
2018-Jun-14 23:28N 54°19' W 130°24'0 0.0
2018-Jun-14 22:55N 54°19' W 130°24'0 0.0
2018-Jun-14 22:25N 54°19' W 130°24'0 0.0
2018-Jun-14 21:55N 54°19' W 130°24'0 0.0
2018-Jun-14 21:27N 54°19' W 130°24'1 0.8
2018-Jun-14 19:44N 54°18' W 130°22'1 5.6
2018-Jun-14 19:30N 54°19' W 130°24'0 0.0
2018-Jun-14 18:59N 54°19' W 130°24'2 3.5
2018-Jun-14 18:28N 54°18' W 130°21'2 4.0
2018-Jun-14 18:00N 54°19' W 130°24'1 1.5
2018-Jun-14 17:02N 54°18' W 130°22'0 9.1
2018-Jun-14 16:59N 54°18' W 130°23'1 1.6
2018-Jun-14 16:23N 54°18' W 130°21'1 3.6
2018-Jun-14 16:00N 54°19' W 130°23'1 0.9
2018-Jun-14 14:24N 54°18' W 130°21'0 0.0
2018-Jun-14 14:00N 54°18' W 130°21'0 0.0
2018-Jun-14 13:18N 54°18' W 130°21'0 0.0
2018-Jun-14 12:36N 54°18' W 130°21'0 0.0
2018-Jun-14 12:21N 54°18' W 130°21'0 0.0
2018-Jun-14 12:00N 54°18' W 130°21'0 0.0
2018-Jun-14 11:30N 54°18' W 130°21'0 0.0
2018-Jun-14 11:00N 54°18' W 130°21'0 0.0
2018-Jun-14 10:30N 54°18' W 130°21'0 0.0
2018-Jun-14 10:00N 54°18' W 130°21'0 0.0
2018-Jun-14 09:27N 54°18' W 130°21'0 0.0
2018-Jun-14 09:00N 54°18' W 130°21'0 0.0
2018-Jun-14 08:30N 54°18' W 130°21'0 0.0
2018-Jun-14 08:00N 54°18' W 130°21'0 0.0
2018-Jun-14 07:27N 54°18' W 130°21'0 0.0
2018-Jun-14 07:00N 54°18' W 130°21'0 0.0
2018-Jun-14 06:30N 54°18' W 130°21'0 0.0
2018-Jun-14 06:00N 54°18' W 130°21'0 0.0
2018-Jun-14 05:30N 54°18' W 130°21'2 3.3
2018-Jun-14 04:59N 54°19' W 130°24'1 1.5
2018-Jun-14 04:26N 54°18' W 130°22'1 2.8
2018-Jun-14 04:00N 54°19' W 130°24'0 0.0
2018-Jun-14 03:30N 54°19' W 130°24'0 0.0
2018-Jun-14 03:00N 54°19' W 130°24'0 0.0
2018-Jun-14 02:30N 54°19' W 130°24'0 0.0
2018-Jun-14 02:00N 54°19' W 130°24'1 1.2
2018-Jun-14 01:30N 54°19' W 130°23'1 0.6
2018-Jun-13 23:50N 54°18' W 130°22'1 2.2
2018-Jun-13 23:29N 54°19' W 130°23'1 2.3
2018-Jun-13 22:55N 54°18' W 130°21'2 4.9
2018-Jun-13 22:30N 54°19' W 130°24'0 0.0
2018-Jun-13 22:00N 54°19' W 130°24'0 0.0
2018-Jun-13 21:30N 54°19' W 130°24'0 0.0
2018-Jun-13 21:00N 54°19' W 130°24'2 3.8
2018-Jun-13 20:27N 54°18' W 130°21'0 0.0
2018-Jun-13 19:57N 54°18' W 130°21'2 4.5
2018-Jun-13 19:30N 54°19' W 130°24'1 2.0
2018-Jun-13 18:58N 54°18' W 130°23'1 2.2
2018-Jun-13 18:29N 54°19' W 130°24'0 0.0
2018-Jun-13 17:59N 54°19' W 130°24'0 0.0
2018-Jun-13 17:26N 54°19' W 130°24'0 0.0
2018-Jun-13 16:59N 54°19' W 130°24'2 2.3
2018-Jun-13 16:20N 54°18' W 130°22'1 3.1
2018-Jun-13 16:00N 54°19' W 130°23'1 0.1
2018-Jun-13 04:18N 54°18' W 130°22'1 3.0
2018-Jun-13 04:00N 54°19' W 130°24'0 0.7
2018-Jun-13 03:30N 54°19' W 130°24'0 0.1
2018-Jun-13 02:56N 54°19' W 130°24'0 0.0
2018-Jun-13 02:26N 54°19' W 130°24'0 0.0
2018-Jun-13 01:56N 54°19' W 130°24'1 1.5
2018-Jun-13 01:30N 54°19' W 130°23'1 0.9
2018-Jun-12 23:55N 54°18' W 130°21'1 3.2
2018-Jun-12 23:30N 54°19' W 130°23'1 1.2
2018-Jun-12 22:41N 54°18' W 130°22'2 9.1
2018-Jun-12 22:30N 54°19' W 130°24'0 0.1
2018-Jun-12 22:00N 54°19' W 130°24'0 0.0
2018-Jun-12 21:30N 54°19' W 130°24'0 0.0
2018-Jun-12 21:00N 54°19' W 130°24'2 1.1
2018-Jun-12 19:13N 54°18' W 130°21'1 6.7
2018-Jun-12 19:00N 54°19' W 130°23'1 1.0
2018-Jun-12 18:08N 54°18' W 130°22'1 8.9
2018-Jun-12 18:00N 54°19' W 130°24'0 0.7
2018-Jun-12 17:30N 54°19' W 130°24'0 0.0
2018-Jun-12 17:00N 54°19' W 130°24'2 2.6
2018-Jun-12 16:23N 54°18' W 130°22'1 2.9
2018-Jun-12 16:01N 54°19' W 130°23'1 2.7
2018-Jun-12 15:27N 54°18' W 130°21'0 0.0
2018-Jun-12 13:27N 54°18' W 130°21'0 0.0
2018-Jun-12 12:57N 54°18' W 130°21'1 0.1
2018-Jun-12 04:21N 54°18' W 130°22'0 0.9
2018-Jun-12 04:00N 54°18' W 130°23'1 1.9
2018-Jun-12 03:27N 54°19' W 130°24'0 0.0
2018-Jun-12 03:00N 54°19' W 130°24'0 0.0
2018-Jun-12 02:30N 54°19' W 130°24'0 0.0
2018-Jun-12 02:00N 54°19' W 130°24'1 1.1
2018-Jun-12 01:30N 54°19' W 130°23'2 1.1
2018-Jun-12 00:02N 54°18' W 130°21'1 3.1
2018-Jun-11 23:47N 54°18' W 130°22'1 3.1
2018-Jun-11 23:30N 54°19' W 130°23'2 2.4
2018-Jun-11 22:49N 54°18' W 130°21'2 6.1
2018-Jun-11 22:29N 54°19' W 130°24'0 0.0
2018-Jun-11 21:59N 54°19' W 130°24'0 0.0
2018-Jun-11 21:29N 54°19' W 130°24'0 0.0
2018-Jun-11 20:59N 54°19' W 130°24'2 1.5
2018-Jun-11 19:37N 54°18' W 130°21'1 7.2
2018-Jun-11 19:29N 54°18' W 130°22'1 1.7
2018-Jun-11 18:57N 54°18' W 130°21'2 3.8
2018-Jun-11 18:26N 54°19' W 130°24'0 0.0
2018-Jun-11 17:59N 54°19' W 130°24'0 0.0
2018-Jun-11 17:30N 54°19' W 130°24'0 0.0
2018-Jun-11 17:00N 54°19' W 130°24'2 3.5
2018-Jun-11 16:24N 54°18' W 130°21'1 3.6
2018-Jun-11 16:00N 54°19' W 130°23'1 2.6
2018-Jun-11 15:26N 54°18' W 130°21'0 0.0
2018-Jun-11 14:56N 54°18' W 130°21'0 0.0
2018-Jun-11 14:26N 54°18' W 130°21'0 0.0
2018-Jun-11 13:50N 54°18' W 130°21'0 0.0
2018-Jun-11 13:14N 54°18' W 130°21'0 0.0
2018-Jun-11 12:50N 54°18' W 130°21'0 0.0
2018-Jun-11 12:14N 54°18' W 130°21'0 0.0
2018-Jun-11 11:56N 54°18' W 130°21'0 0.0
2018-Jun-11 08:50N 54°18' W 130°21'0 0.0
2018-Jun-11 08:26N 54°18' W 130°21'0 0.0
2018-Jun-11 05:50N 54°18' W 130°21'0 0.0
2018-Jun-11 05:29N 54°18' W 130°21'1 2.6
2018-Jun-11 04:59N 54°19' W 130°23'1 2.7
2018-Jun-11 04:29N 54°18' W 130°21'2 4.0
2018-Jun-11 03:59N 54°19' W 130°24'0 0.0
2018-Jun-11 03:29N 54°19' W 130°24'0 0.0
2018-Jun-11 02:59N 54°19' W 130°24'  

Dump ship's entire track history